createdAt,value
2018-04-18T00:01:17.673Z,78.90
2018-04-18T00:03:45.208Z,78.80
2018-04-18T00:06:13.482Z,79.30
2018-04-18T00:08:40.998Z,79.30
2018-04-18T00:11:08.542Z,79.20
2018-04-18T00:13:36.819Z,79.00
2018-04-18T00:16:04.363Z,79.00
2018-04-18T00:18:31.871Z,79.30
2018-04-18T00:20:59.416Z,79.60
2018-04-18T00:23:26.928Z,79.90
2018-04-18T00:25:54.479Z,80.00
2018-04-18T00:28:21.994Z,80.50
2018-04-18T00:30:49.538Z,80.50
2018-04-18T00:33:17.048Z,80.80
2018-04-18T00:35:44.589Z,80.90
2018-04-18T00:38:12.096Z,81.10
2018-04-18T00:40:39.630Z,81.20
2018-04-18T00:43:07.143Z,81.40
2018-04-18T00:45:34.713Z,81.40
2018-04-18T00:48:02.232Z,81.50
2018-04-18T00:50:29.769Z,81.80
2018-04-18T00:52:57.283Z,81.60
2018-04-18T00:55:24.834Z,82.00
2018-04-18T00:57:52.359Z,81.90
2018-04-18T01:00:19.895Z,81.90
2018-04-18T01:02:47.399Z,82.00
2018-04-18T01:05:14.952Z,82.80
2018-04-18T01:07:42.455Z,82.30
2018-04-18T01:10:11.787Z,82.20
2018-04-18T01:12:39.283Z,82.20
2018-04-18T01:15:06.803Z,82.50
2018-04-18T01:17:34.338Z,82.60
2018-04-18T01:20:01.859Z,82.90
2018-04-18T01:22:29.401Z,83.20
2018-04-18T01:24:56.911Z,83.10
2018-04-18T01:27:24.455Z,83.30
2018-04-18T01:29:51.965Z,83.20
2018-04-18T01:32:19.507Z,83.20
2018-04-18T01:34:47.785Z,83.10
2018-04-18T01:37:16.109Z,83.30
2018-04-18T01:39:43.622Z,83.20
2018-04-18T01:42:11.950Z,82.70
2018-04-18T01:44:40.231Z,82.70
2018-04-18T01:47:07.775Z,82.70
2018-04-18T01:49:35.288Z,82.90
2018-04-18T01:52:03.607Z,82.70
2018-04-18T01:54:31.559Z,83.00
2018-04-18T01:56:59.123Z,83.10
2018-04-18T01:59:26.639Z,83.10
2018-04-18T02:01:54.947Z,83.20
2018-04-18T02:04:22.457Z,83.00
2018-04-18T02:06:50.000Z,82.80
2018-04-18T02:09:17.499Z,82.80
2018-04-18T02:11:45.049Z,82.80
2018-04-18T02:14:12.554Z,83.00
2018-04-18T02:16:40.126Z,83.80
2018-04-18T02:19:07.637Z,84.20
2018-04-18T02:21:35.904Z,84.20
2018-04-18T02:24:03.449Z,84.10
2018-04-18T02:26:30.963Z,83.90
2018-04-18T02:28:58.508Z,83.60
2018-04-18T02:31:26.052Z,83.50
2018-04-18T02:33:53.608Z,83.80
2018-04-18T02:36:21.899Z,84.20
2018-04-18T02:38:50.199Z,84.30
2018-04-18T02:41:17.704Z,84.10
2018-04-18T02:43:45.235Z,84.40
2018-04-18T02:46:12.759Z,84.40
2018-04-18T02:48:40.305Z,84.40
2018-04-18T02:51:07.816Z,84.50
2018-04-18T02:53:35.365Z,84.80
2018-04-18T02:56:02.881Z,85.40
2018-04-18T02:58:30.423Z,84.50
2018-04-18T03:00:57.944Z,84.80
2018-04-18T03:03:25.464Z,85.20
2018-04-18T03:05:53.002Z,84.70
2018-04-18T03:08:21.272Z,85.20
2018-04-18T03:10:48.855Z,85.20
2018-04-18T03:13:16.364Z,85.40
2018-04-18T03:15:43.900Z,85.40
2018-04-18T03:18:11.407Z,85.30
2018-04-18T03:20:38.968Z,85.70
2018-04-18T03:23:06.482Z,85.50
2018-04-18T03:25:34.017Z,85.40
2018-04-18T03:28:01.529Z,85.50
2018-04-18T03:30:29.076Z,85.50
2018-04-18T03:32:58.228Z,85.50
2018-04-18T03:35:25.776Z,85.30
2018-04-18T03:37:53.295Z,85.50
2018-04-18T03:40:20.892Z,86.20
2018-04-18T03:42:48.395Z,85.90
2018-04-18T03:45:17.855Z,85.80
2018-04-18T03:47:45.661Z,85.60
2018-04-18T03:50:13.405Z,85.70
2018-04-18T03:52:41.158Z,85.90
2018-04-18T03:55:08.966Z,86.10
2018-04-18T03:57:36.757Z,86.60
2018-04-18T04:00:04.631Z,86.70
2018-04-18T04:02:32.472Z,86.60
2018-04-18T04:05:00.205Z,86.80
2018-04-18T04:07:27.997Z,86.70
2018-04-18T04:09:56.543Z,86.80
2018-04-18T04:12:24.402Z,86.80
2018-04-18T04:14:52.189Z,87.10
2018-04-18T04:17:32.252Z,87.60
2018-04-18T04:20:11.785Z,87.60
2018-04-18T04:22:51.378Z,87.50
2018-04-18T04:25:19.230Z,87.60
2018-04-18T04:27:47.039Z,87.70
2018-04-18T04:30:14.846Z,88.10
2018-04-18T04:32:42.500Z,88.10
2018-04-18T04:35:10.236Z,88.40
2018-04-18T04:37:37.992Z,88.50
2018-04-18T04:40:06.458Z,88.80
2018-04-18T04:42:34.242Z,88.70
2018-04-18T04:45:01.937Z,88.90
2018-04-18T04:47:32.619Z,88.80
2018-04-18T04:50:00.459Z,89.50
2018-04-18T04:52:28.296Z,89.00
2018-04-18T04:54:56.123Z,89.30
2018-04-18T04:57:24.555Z,89.40
2018-04-18T04:59:52.172Z,89.30
2018-04-18T05:02:19.922Z,89.50
2018-04-18T05:04:47.583Z,89.70
2018-04-18T05:07:15.377Z,89.60
2018-04-18T05:09:43.575Z,89.70
2018-04-18T05:12:11.337Z,90.20
2018-04-18T05:14:39.085Z,89.70
2018-04-18T05:17:06.771Z,89.90
2018-04-18T05:19:34.723Z,90.00
2018-04-18T05:22:02.417Z,89.80
2018-04-18T05:24:30.882Z,89.70
2018-04-18T05:26:58.486Z,89.60
2018-04-18T05:29:26.272Z,89.60
2018-04-18T05:31:54.010Z,89.40
2018-04-18T05:34:21.731Z,89.40
2018-04-18T05:36:49.364Z,88.10
2018-04-18T05:39:17.056Z,88.10
2018-04-18T05:41:45.570Z,88.30
2018-04-18T05:44:13.313Z,88.40
2018-04-18T05:46:40.995Z,88.40
2018-04-18T05:49:09.521Z,88.30
2018-04-18T05:51:37.199Z,88.20
2018-04-18T05:54:04.912Z,88.40
2018-04-18T05:56:33.304Z,87.00
2018-04-18T05:59:01.048Z,86.70
2018-04-18T06:01:28.739Z,86.50
2018-04-18T06:03:56.633Z,85.70
2018-04-18T06:06:24.564Z,85.00
2018-04-18T06:08:52.411Z,85.10
2018-04-18T06:11:20.311Z,84.50
2018-04-18T06:13:48.163Z,84.10
2018-04-18T06:16:15.843Z,84.00
2018-04-18T06:18:43.542Z,81.80
2018-04-18T06:21:11.266Z,81.80
2018-04-18T06:23:39.798Z,81.50
2018-04-18T06:26:07.531Z,81.40
2018-04-18T06:28:35.184Z,81.40
2018-04-18T06:31:04.211Z,78.90
2018-04-18T06:33:31.980Z,77.50
2018-04-18T06:35:59.780Z,76.00
2018-04-18T06:38:27.449Z,76.90
2018-04-18T06:40:55.298Z,74.40
2018-04-18T06:43:23.140Z,74.70
2018-04-18T06:45:51.003Z,74.30
2018-04-18T06:48:18.856Z,74.40
2018-04-18T06:50:46.677Z,73.10
2018-04-18T06:53:14.345Z,72.30
2018-04-18T06:55:42.127Z,72.40
2018-04-18T06:58:09.994Z,71.70
2018-04-18T07:00:37.960Z,72.00
2018-04-18T07:03:05.746Z,70.50
2018-04-18T07:05:33.374Z,70.60
2018-04-18T07:08:01.147Z,69.70
2018-04-18T07:10:29.023Z,69.60
2018-04-18T07:12:57.790Z,69.40
2018-04-18T07:15:25.426Z,69.60
2018-04-18T07:17:53.121Z,68.10
2018-04-18T07:20:20.877Z,69.50
2018-04-18T07:22:49.433Z,68.60
2018-04-18T07:25:16.973Z,67.30
2018-04-18T07:27:44.535Z,67.60
2018-04-18T07:30:12.069Z,67.50
2018-04-18T07:32:39.638Z,66.30
2018-04-18T07:35:08.365Z,66.70
2018-04-18T07:37:36.164Z,67.60
2018-04-18T07:40:03.851Z,65.70
2018-04-18T07:42:31.522Z,65.40
2018-04-18T07:44:59.206Z,65.00
2018-04-18T07:47:26.937Z,65.30
2018-04-18T07:49:54.649Z,65.20
2018-04-18T07:52:22.459Z,64.50
2018-04-18T07:54:50.605Z,63.80
2018-04-18T07:57:18.599Z,63.90
2018-04-18T07:59:46.342Z,63.60
2018-04-18T08:02:18.199Z,63.50
2018-04-18T08:04:45.997Z,63.50
2018-04-18T08:07:13.665Z,63.00
2018-04-18T08:09:42.328Z,61.70
2018-04-18T08:12:10.266Z,62.20
2018-04-18T08:14:38.069Z,60.90
2018-04-18T08:17:05.895Z,61.50
2018-04-18T08:19:33.840Z,61.00
2018-04-18T08:22:01.669Z,60.00
2018-04-18T08:24:29.593Z,60.10
2018-04-18T08:26:57.701Z,59.50
2018-04-18T08:29:25.617Z,58.50
2018-04-18T08:31:53.560Z,59.00
2018-04-18T08:34:21.521Z,59.80
2018-04-18T08:36:49.339Z,58.90
2018-04-18T08:39:19.634Z,58.00
2018-04-18T08:41:47.208Z,59.30
2018-04-18T08:44:15.763Z,58.50
2018-04-18T08:46:43.566Z,58.30
2018-04-18T08:49:12.309Z,58.30
2018-04-18T08:51:40.189Z,58.30
2018-04-18T08:54:07.999Z,58.00
2018-04-18T08:56:35.898Z,56.90
2018-04-18T08:59:03.809Z,56.50
2018-04-18T09:01:31.595Z,58.10
2018-04-18T09:04:00.137Z,55.00
2018-04-18T09:06:28.187Z,54.90
2018-04-18T09:08:56.087Z,54.20
2018-04-18T09:11:23.917Z,54.90
2018-04-18T09:13:52.183Z,54.40
2018-04-18T09:16:19.902Z,53.60
2018-04-18T09:18:47.503Z,51.90
2018-04-18T09:21:15.895Z,50.30
2018-04-18T09:23:43.522Z,50.10
2018-04-18T09:26:11.248Z,50.70
2018-04-18T09:28:39.183Z,50.90
2018-04-18T09:31:07.055Z,50.70
2018-04-18T09:33:34.905Z,50.40
2018-04-18T09:36:02.817Z,51.40
2018-04-18T09:38:30.771Z,51.20
2018-04-18T09:40:59.139Z,49.70
2018-04-18T09:43:26.887Z,50.50
2018-04-18T09:45:54.597Z,49.20
2018-04-18T09:48:22.281Z,49.40
2018-04-18T09:50:50.776Z,50.20
2018-04-18T09:53:18.678Z,50.10
2018-04-18T09:55:46.384Z,50.20
2018-04-18T09:58:14.203Z,47.90
2018-04-18T10:00:47.593Z,48.00
2018-04-18T10:03:15.333Z,47.80
2018-04-18T10:05:43.302Z,47.60
2018-04-18T10:08:11.786Z,46.70
2018-04-18T10:10:39.468Z,46.70
2018-04-18T10:13:07.258Z,46.70
2018-04-18T10:15:35.084Z,46.20
2018-04-18T10:18:02.832Z,47.80
2018-04-18T10:20:31.412Z,47.10
2018-04-18T10:22:59.263Z,47.00
2018-04-18T10:25:26.985Z,45.60
2018-04-18T10:27:54.579Z,46.50
2018-04-18T10:30:22.340Z,45.60
2018-04-18T10:32:50.063Z,45.50
2018-04-18T10:35:17.827Z,45.50
2018-04-18T10:37:45.757Z,44.40
2018-04-18T10:40:13.456Z,44.10
2018-04-18T10:42:41.109Z,46.70
2018-04-18T10:45:08.796Z,47.10
2018-04-18T10:47:36.635Z,46.60
2018-04-18T10:50:04.419Z,46.20
2018-04-18T10:52:32.247Z,45.60
2018-04-18T10:54:59.909Z,46.70
2018-04-18T10:57:27.493Z,46.20
2018-04-18T10:59:55.931Z,46.40
2018-04-18T11:02:23.602Z,46.30
2018-04-18T11:04:51.328Z,47.20
2018-04-18T11:07:19.755Z,44.30
2018-04-18T11:09:47.464Z,44.30
2018-04-18T11:12:15.190Z,43.70
2018-04-18T11:14:42.932Z,45.60
2018-04-18T11:17:10.608Z,45.30
2018-04-18T11:19:38.426Z,43.90
2018-04-18T11:22:06.229Z,43.70
2018-04-18T11:24:34.050Z,44.40
2018-04-18T11:27:01.887Z,43.50
2018-04-18T11:29:29.533Z,43.20
2018-04-18T11:31:57.223Z,44.50
2018-04-18T11:34:24.804Z,44.30
2018-04-18T11:36:52.469Z,44.10
2018-04-18T11:39:20.418Z,41.90
2018-04-18T11:41:48.103Z,43.00
2018-04-18T11:44:16.021Z,42.20
2018-04-18T11:46:44.311Z,42.40
2018-04-18T11:49:11.920Z,42.10
2018-04-18T11:51:39.638Z,41.80
2018-04-18T11:54:07.525Z,43.40
2018-04-18T11:56:36.079Z,42.50
2018-04-18T11:59:04.551Z,42.50
2018-04-18T12:01:32.614Z,42.00
2018-04-18T12:04:00.550Z,41.70
2018-04-18T12:06:28.347Z,41.70
2018-04-18T12:08:56.226Z,40.60
2018-04-18T12:11:24.018Z,39.60
2018-04-18T12:13:51.763Z,39.40
2018-04-18T12:16:19.620Z,40.00
2018-04-18T12:18:47.459Z,38.30
2018-04-18T12:21:15.304Z,38.00
2018-04-18T12:23:43.817Z,38.60
2018-04-18T12:26:11.976Z,37.70
2018-04-18T12:28:39.765Z,37.70
2018-04-18T12:31:07.358Z,37.20
2018-04-18T12:33:35.052Z,37.10
2018-04-18T12:36:03.046Z,36.40
2018-04-18T12:38:34.462Z,37.40
2018-04-18T12:41:02.525Z,36.70
2018-04-18T12:43:30.294Z,39.10
2018-04-18T12:45:58.044Z,37.30
2018-04-18T12:48:25.749Z,37.10
2018-04-18T12:50:53.435Z,37.40
2018-04-18T12:53:21.140Z,36.80
2018-04-18T12:55:48.796Z,36.30
2018-04-18T12:58:19.172Z,36.40
2018-04-18T13:00:46.989Z,37.10
2018-04-18T13:03:14.679Z,36.50
2018-04-18T13:05:42.457Z,36.70
2018-04-18T13:08:10.036Z,35.60
2018-04-18T13:10:38.012Z,34.90
2018-04-18T13:13:05.731Z,33.60
2018-04-18T13:15:33.518Z,34.40
2018-04-18T13:18:01.444Z,34.50
2018-04-18T13:20:29.904Z,34.20
2018-04-18T13:22:57.671Z,34.20
2018-04-18T13:25:25.443Z,35.10
2018-04-18T13:27:53.128Z,36.30
2018-04-18T13:30:21.622Z,35.20
2018-04-18T13:32:50.470Z,35.30
2018-04-18T13:35:18.984Z,34.30
2018-04-18T13:37:46.657Z,34.30
2018-04-18T13:40:14.475Z,33.10
2018-04-18T13:42:42.347Z,34.20
2018-04-18T13:45:10.042Z,33.20
2018-04-18T13:47:37.785Z,33.30
2018-04-18T13:50:05.407Z,34.10
2018-04-18T13:52:33.139Z,34.90
2018-04-18T13:55:00.964Z,30.90
2018-04-18T13:57:28.857Z,31.20
2018-04-18T13:59:56.753Z,31.80
2018-04-18T14:02:24.395Z,32.50
2018-04-18T14:04:52.178Z,32.70
2018-04-18T14:07:20.009Z,32.30
2018-04-18T14:09:47.752Z,31.10
2018-04-18T14:12:15.525Z,30.90
2018-04-18T14:14:43.915Z,33.90
2018-04-18T14:17:11.809Z,33.80
2018-04-18T14:19:39.516Z,31.60
2018-04-18T14:22:07.972Z,29.50
2018-04-18T14:24:35.684Z,29.40
2018-04-18T14:27:04.314Z,31.40
2018-04-18T14:29:32.125Z,31.40
2018-04-18T14:32:00.081Z,32.00
2018-04-18T14:34:27.624Z,31.90
2018-04-18T14:36:55.367Z,31.60
2018-04-18T14:39:23.068Z,31.70
2018-04-18T14:41:50.765Z,31.10
2018-04-18T14:44:18.663Z,31.50
2018-04-18T14:46:46.647Z,31.10
2018-04-18T14:49:15.444Z,30.70
2018-04-18T14:51:43.527Z,30.90
2018-04-18T14:54:11.199Z,32.60
2018-04-18T14:56:38.974Z,32.80
2018-04-18T14:59:08.582Z,33.40
2018-04-18T15:01:36.402Z,33.40
2018-04-18T15:04:04.252Z,33.80
2018-04-18T15:06:32.059Z,31.80
2018-04-18T15:08:59.868Z,31.50
2018-04-18T15:11:27.459Z,32.50
2018-04-18T15:13:55.547Z,33.40
2018-04-18T15:16:23.144Z,32.50
2018-04-18T15:18:50.897Z,32.40
2018-04-18T15:21:18.539Z,31.40
2018-04-18T15:23:46.444Z,31.90
2018-04-18T15:26:14.277Z,30.30
2018-04-18T15:28:42.736Z,30.90
2018-04-18T15:31:10.328Z,31.50
2018-04-18T15:33:46.239Z,33.40
2018-04-18T15:36:14.003Z,33.40
2018-04-18T15:38:41.663Z,33.60
2018-04-18T15:41:09.384Z,32.70
2018-04-18T15:43:37.064Z,32.80
2018-04-18T15:46:04.928Z,33.50
2018-04-18T15:48:33.328Z,34.20
2018-04-18T15:51:01.054Z,34.20
2018-04-18T15:53:29.539Z,34.60
2018-04-18T15:55:57.394Z,34.60
2018-04-18T15:58:25.165Z,34.80
2018-04-18T16:00:52.934Z,35.40
2018-04-18T16:03:20.706Z,35.10
2018-04-18T16:05:48.442Z,35.00
2018-04-18T16:08:16.099Z,35.40
2018-04-18T16:10:43.668Z,35.10
2018-04-18T16:13:11.244Z,35.30
2018-04-18T16:15:38.838Z,35.30
2018-04-18T16:18:06.415Z,35.30
2018-04-18T16:20:34.053Z,35.90
2018-04-18T16:23:02.534Z,36.70
2018-04-18T16:25:30.845Z,36.80
2018-04-18T16:27:58.482Z,36.70
2018-04-18T16:30:38.753Z,36.90
2018-04-18T16:33:06.427Z,36.80
2018-04-18T16:35:34.085Z,37.60
2018-04-18T16:38:01.663Z,38.10
2018-04-18T16:40:29.342Z,37.10
2018-04-18T16:42:56.951Z,37.80
2018-04-18T16:45:24.519Z,37.80
2018-04-18T16:47:52.126Z,38.40
2018-04-18T16:50:19.690Z,37.80
2018-04-18T16:52:47.293Z,38.10
2018-04-18T16:55:14.836Z,38.40
2018-04-18T16:57:42.461Z,39.00
2018-04-18T17:00:10.034Z,39.20
2018-04-18T17:02:37.644Z,38.90
2018-04-18T17:05:06.060Z,40.00
2018-04-18T17:07:33.791Z,40.00
2018-04-18T17:10:01.398Z,40.30
2018-04-18T17:12:28.965Z,41.60
2018-04-18T17:14:57.316Z,40.80
2018-04-18T17:17:24.906Z,40.70
2018-04-18T17:19:52.488Z,41.90
2018-04-18T17:22:20.082Z,42.40
2018-04-18T17:24:47.654Z,43.90
2018-04-18T17:27:15.423Z,45.90
2018-04-18T17:29:43.033Z,46.10
2018-04-18T17:32:10.638Z,46.30
2018-04-18T17:34:38.257Z,46.60
2018-04-18T17:37:06.807Z,48.10
2018-04-18T17:39:35.134Z,48.00
2018-04-18T17:42:05.689Z,48.70
2018-04-18T17:44:34.084Z,49.40
2018-04-18T17:47:01.775Z,49.40
2018-04-18T17:49:29.428Z,51.50
2018-04-18T17:51:56.953Z,51.90
2018-04-18T17:54:25.331Z,52.50
2018-04-18T17:56:53.619Z,53.70
2018-04-18T17:59:21.182Z,53.60
2018-04-18T18:01:49.491Z,53.00
2018-04-18T18:04:17.038Z,52.90
2018-04-18T18:06:44.558Z,53.10
2018-04-18T18:09:12.069Z,54.00
2018-04-18T18:11:39.611Z,55.00
2018-04-18T18:14:07.143Z,54.80
2018-04-18T18:16:34.680Z,54.40
2018-04-18T18:19:02.201Z,54.80
2018-04-18T18:21:29.749Z,54.40
2018-04-18T18:23:57.262Z,54.20
2018-04-18T18:26:24.787Z,55.00
2018-04-18T18:28:52.304Z,55.00
2018-04-18T18:31:19.863Z,55.40
2018-04-18T18:33:47.377Z,55.50
2018-04-18T18:36:14.923Z,55.50
2018-04-18T18:38:42.425Z,55.90
2018-04-18T18:41:09.963Z,55.30
2018-04-18T18:43:37.473Z,55.70
2018-04-18T18:46:05.004Z,55.90
2018-04-18T18:48:32.521Z,56.60
2018-04-18T18:51:00.059Z,57.30
2018-04-18T18:53:27.573Z,58.20
2018-04-18T18:55:55.111Z,58.00
2018-04-18T18:58:23.367Z,57.80
2018-04-18T19:00:50.900Z,57.80
2018-04-18T19:03:18.426Z,57.80
2018-04-18T19:05:45.989Z,57.60
2018-04-18T19:08:13.509Z,58.00
2018-04-18T19:10:41.832Z,59.40
2018-04-18T19:13:09.346Z,60.00
2018-04-18T19:15:36.954Z,59.30
2018-04-18T19:18:05.186Z,60.00
2018-04-18T19:20:33.522Z,59.70
2018-04-18T19:23:01.029Z,60.30
2018-04-18T19:25:28.548Z,59.70
2018-04-18T19:27:56.090Z,59.90
2018-04-18T19:30:23.597Z,60.50
2018-04-18T19:32:51.241Z,61.00
2018-04-18T19:35:18.826Z,61.50
2018-04-18T19:37:47.240Z,62.00
2018-04-18T19:40:14.897Z,62.00
2018-04-18T19:42:42.519Z,61.60
2018-04-18T19:45:10.095Z,61.70
2018-04-18T19:47:37.746Z,61.40
2018-04-18T19:50:06.083Z,61.60
2018-04-18T19:52:33.672Z,61.40
2018-04-18T19:55:01.204Z,62.20
2018-04-18T19:57:28.796Z,62.10
2018-04-18T19:59:57.120Z,63.80
2018-04-18T20:02:24.682Z,63.70
2018-04-18T20:04:52.332Z,63.30
2018-04-18T20:07:19.889Z,63.30
2018-04-18T20:09:47.492Z,64.10
2018-04-18T20:12:15.827Z,64.60
2018-04-18T20:14:43.409Z,64.60
2018-04-18T20:17:10.955Z,65.60
2018-04-18T20:19:38.577Z,66.30
2018-04-18T20:22:06.991Z,67.60
2018-04-18T20:24:34.560Z,67.50
2018-04-18T20:27:02.125Z,67.40
2018-04-18T20:29:29.700Z,67.80
2018-04-18T20:31:57.319Z,68.00
2018-04-18T20:34:24.935Z,67.40
2018-04-18T20:36:52.512Z,67.90
2018-04-18T20:39:20.439Z,68.30
2018-04-18T20:41:54.813Z,68.00
2018-04-18T20:44:22.388Z,67.90
2018-04-18T20:46:49.957Z,67.50
2018-04-18T20:49:17.521Z,67.00
2018-04-18T20:51:45.093Z,66.40
2018-04-18T20:54:12.663Z,66.10
2018-04-18T20:56:40.281Z,66.40
2018-04-18T20:59:07.813Z,67.10
2018-04-18T21:01:35.371Z,67.80
2018-04-18T21:04:02.917Z,68.10
2018-04-18T21:06:30.468Z,68.60
2018-04-18T21:08:57.992Z,68.10
2018-04-18T21:11:25.537Z,68.10
2018-04-18T21:13:53.065Z,68.50
2018-04-18T21:16:20.701Z,68.40
2018-04-18T21:18:48.254Z,68.60
2018-04-18T21:21:16.500Z,68.70
2018-04-18T21:23:44.075Z,69.10
2018-04-18T21:26:11.672Z,69.40
2018-04-18T21:28:39.276Z,69.20
2018-04-18T21:31:06.897Z,68.90
2018-04-18T21:33:34.469Z,69.30
2018-04-18T21:36:02.067Z,69.10
2018-04-18T21:38:29.660Z,69.10
2018-04-18T21:40:57.177Z,68.80
2018-04-18T21:43:25.507Z,69.00
2018-04-18T21:45:53.029Z,69.00
2018-04-18T21:48:20.585Z,70.00
2018-04-18T21:50:48.173Z,69.70
2018-04-18T21:53:15.736Z,70.30
2018-04-18T21:55:43.257Z,71.00
2018-04-18T21:58:10.875Z,71.30
2018-04-18T22:00:38.398Z,71.50
2018-04-18T22:03:05.979Z,71.90
2018-04-18T22:05:33.527Z,72.00
2018-04-18T22:08:01.109Z,72.30
2018-04-18T22:10:28.662Z,72.40
2018-04-18T22:12:57.003Z,72.30
2018-04-18T22:15:24.538Z,72.30
2018-04-18T22:17:52.119Z,72.70
2018-04-18T22:20:19.682Z,72.70
2018-04-18T22:22:47.276Z,72.50
2018-04-18T22:25:14.845Z,73.00
2018-04-18T22:27:42.416Z,73.50
2018-04-18T22:30:10.099Z,73.40
2018-04-18T22:32:37.654Z,73.30
2018-04-18T22:35:05.992Z,73.90
2018-04-18T22:37:33.549Z,73.60
2018-04-18T22:40:01.162Z,73.90
2018-04-18T22:42:28.695Z,74.30
2018-04-18T22:44:56.300Z,74.70
2018-04-18T22:47:23.859Z,74.60
2018-04-18T22:49:51.395Z,74.60
2018-04-18T22:52:18.927Z,74.80
2018-04-18T22:54:46.480Z,75.00
2018-04-18T22:57:14.030Z,75.20
2018-04-18T22:59:41.620Z,75.70
2018-04-18T23:02:09.132Z,75.80
2018-04-18T23:04:36.796Z,75.80
2018-04-18T23:07:04.305Z,75.90
2018-04-18T23:09:31.902Z,75.40
2018-04-18T23:11:59.449Z,75.30
2018-04-18T23:14:27.042Z,75.00
2018-04-18T23:16:54.627Z,75.00
2018-04-18T23:19:22.338Z,74.90
2018-04-18T23:21:49.892Z,74.80
2018-04-18T23:24:17.442Z,74.90
2018-04-18T23:26:45.051Z,75.10
2018-04-18T23:29:12.656Z,74.90
2018-04-18T23:31:40.971Z,75.70
2018-04-18T23:34:08.486Z,75.20
2018-04-18T23:36:36.020Z,75.50
2018-04-18T23:39:03.560Z,75.80
2018-04-18T23:41:31.135Z,76.10
2018-04-18T23:43:58.664Z,76.50
2018-04-18T23:46:26.256Z,76.40
2018-04-18T23:48:53.821Z,76.30
2018-04-18T23:51:21.384Z,76.10
2018-04-18T23:53:49.784Z,76.00
2018-04-18T23:56:17.344Z,76.00
2018-04-18T23:58:45.685Z,75.70
